sensor_id;sensor_type;location;lat;lon;timestamp;pressure;altitude;pressure_sealevel;temperature;humidity
71873;BME280;59745;52.924;-2.388;2022-07-30T00:03:01;99529.50;;;26.89;30.76
71873;BME280;59745;52.924;-2.388;2022-07-30T00:05:26;99527.44;;;26.84;30.96
71873;BME280;59745;52.924;-2.388;2022-07-30T00:07:51;99524.55;;;27.08;30.84
71873;BME280;59745;52.924;-2.388;2022-07-30T00:10:16;99524.68;;;26.72;31.03
71873;BME280;59745;52.924;-2.388;2022-07-30T00:12:41;99524.90;;;26.86;31.12
71873;BME280;59745;52.924;-2.388;2022-07-30T00:15:07;99523.57;;;26.54;31.44
71873;BME280;59745;52.924;-2.388;2022-07-30T00:17:31;99523.12;;;26.38;31.50
71873;BME280;59745;52.924;-2.388;2022-07-30T00:19:57;99524.94;;;26.34;31.85
71873;BME280;59745;52.924;-2.388;2022-07-30T00:22:22;99520.63;;;26.49;31.62
71873;BME280;59745;52.924;-2.388;2022-07-30T00:24:48;99522.09;;;26.12;31.57
71873;BME280;59745;52.924;-2.388;2022-07-30T00:27:13;99518.82;;;26.35;31.61
71873;BME280;59745;52.924;-2.388;2022-07-30T00:29:39;99516.62;;;26.30;31.62
71873;BME280;59745;52.924;-2.388;2022-07-30T00:32:05;99508.75;;;26.24;31.77
71873;BME280;59745;52.924;-2.388;2022-07-30T00:34:30;99502.87;;;26.35;31.45
71873;BME280;59745;52.924;-2.388;2022-07-30T00:36:55;99499.67;;;26.21;31.34
71873;BME280;59745;52.924;-2.388;2022-07-30T00:39:20;99502.89;;;26.15;31.39
71873;BME280;59745;52.924;-2.388;2022-07-30T00:41:53;99499.90;;;26.13;31.33
71873;BME280;59745;52.924;-2.388;2022-07-30T00:44:11;99497.77;;;26.29;30.82
71873;BME280;59745;52.924;-2.388;2022-07-30T00:46:36;99498.81;;;26.10;31.24
71873;BME280;59745;52.924;-2.388;2022-07-30T00:49:01;99499.04;;;26.17;31.18
71873;BME280;59745;52.924;-2.388;2022-07-30T00:51:26;99504.29;;;26.13;31.41
71873;BME280;59745;52.924;-2.388;2022-07-30T00:53:52;99504.10;;;26.64;31.40
71873;BME280;59745;52.924;-2.388;2022-07-30T00:56:17;99502.74;;;26.05;31.42
71873;BME280;59745;52.924;-2.388;2022-07-30T00:58:42;99501.42;;;26.15;30.85
71873;BME280;59745;52.924;-2.388;2022-07-30T01:01:07;99500.43;;;26.31;30.78
71873;BME280;59745;52.924;-2.388;2022-07-30T01:03:32;99495.97;;;26.09;30.90
71873;BME280;59745;52.924;-2.388;2022-07-30T01:05:58;99487.92;;;25.91;31.28
71873;BME280;59745;52.924;-2.388;2022-07-30T01:08:23;99483.47;;;25.84;31.55
71873;BME280;59745;52.924;-2.388;2022-07-30T01:10:48;99481.01;;;26.00;31.68
71873;BME280;59745;52.924;-2.388;2022-07-30T01:13:13;99481.71;;;25.88;31.49
71873;BME280;59745;52.924;-2.388;2022-07-30T01:15:39;99482.20;;;25.83;31.69
71873;BME280;59745;52.924;-2.388;2022-07-30T01:18:07;99479.54;;;25.91;31.82
71873;BME280;59745;52.924;-2.388;2022-07-30T01:20:39;99479.68;;;26.39;31.69
71873;BME280;59745;52.924;-2.388;2022-07-30T01:23:03;99477.36;;;25.91;31.93
71873;BME280;59745;52.924;-2.388;2022-07-30T01:27:53;99464.34;;;25.95;31.32
71873;BME280;59745;52.924;-2.388;2022-07-30T01:30:14;99461.70;;;26.13;31.25
71873;BME280;59745;52.924;-2.388;2022-07-30T01:32:39;99459.76;;;25.71;31.59
71873;BME280;59745;52.924;-2.388;2022-07-30T01:35:01;99458.64;;;25.78;31.43
71873;BME280;59745;52.924;-2.388;2022-07-30T01:37:27;99455.67;;;25.65;31.51
71873;BME280;59745;52.924;-2.388;2022-07-30T01:39:52;99459.34;;;25.69;31.55
71873;BME280;59745;52.924;-2.388;2022-07-30T01:42:17;99461.77;;;25.67;31.77
71873;BME280;59745;52.924;-2.388;2022-07-30T01:44:42;99461.59;;;25.58;31.70
71873;BME280;59745;52.924;-2.388;2022-07-30T01:47:07;99461.25;;;25.64;31.62
71873;BME280;59745;52.924;-2.388;2022-07-30T01:49:33;99460.06;;;25.47;31.78
71873;BME280;59745;52.924;-2.388;2022-07-30T01:51:57;99464.35;;;25.53;31.50
71873;BME280;59745;52.924;-2.388;2022-07-30T01:54:23;99464.60;;;25.40;31.20
71873;BME280;59745;52.924;-2.388;2022-07-30T01:56:47;99460.52;;;25.38;31.37
71873;BME280;59745;52.924;-2.388;2022-07-30T01:59:12;99456.49;;;25.44;31.20
71873;BME280;59745;52.924;-2.388;2022-07-30T02:01:37;99456.50;;;25.67;31.30
71873;BME280;59745;52.924;-2.388;2022-07-30T02:04:02;99456.18;;;25.54;31.27
71873;BME280;59745;52.924;-2.388;2022-07-30T02:06:32;99457.64;;;25.66;31.20
71873;BME280;59745;52.924;-2.388;2022-07-30T02:08:54;99453.18;;;25.53;31.48
71873;BME280;59745;52.924;-2.388;2022-07-30T02:11:18;99450.63;;;25.54;31.72
71873;BME280;59745;52.924;-2.388;2022-07-30T02:13:46;99457.78;;;25.26;31.66
71873;BME280;59745;52.924;-2.388;2022-07-30T02:16:12;99454.30;;;25.68;31.24
71873;BME280;59745;52.924;-2.388;2022-07-30T02:18:39;99451.24;;;25.66;30.82
71873;BME280;59745;52.924;-2.388;2022-07-30T02:21:00;99442.37;;;25.57;31.02
71873;BME280;59745;52.924;-2.388;2022-07-30T02:23:23;99435.13;;;25.60;31.00
71873;BME280;59745;52.924;-2.388;2022-07-30T02:25:49;99435.23;;;25.59;30.57
71873;BME280;59745;52.924;-2.388;2022-07-30T02:28:14;99430.27;;;25.65;30.48
71873;BME280;59745;52.924;-2.388;2022-07-30T02:30:44;99425.00;;;25.52;30.62
71873;BME280;59745;52.924;-2.388;2022-07-30T02:33:06;99430.58;;;25.48;30.68
71873;BME280;59745;52.924;-2.388;2022-07-30T02:35:29;99424.48;;;25.55;30.69
71873;BME280;59745;52.924;-2.388;2022-07-30T02:37:53;99427.67;;;25.35;30.72
71873;BME280;59745;52.924;-2.388;2022-07-30T02:40:20;99430.15;;;25.61;30.73
71873;BME280;59745;52.924;-2.388;2022-07-30T02:42:46;99427.50;;;25.48;30.86
71873;BME280;59745;52.924;-2.388;2022-07-30T02:45:11;99428.74;;;25.63;30.67
71873;BME280;59745;52.924;-2.388;2022-07-30T02:47:34;99428.67;;;25.81;30.57
71873;BME280;59745;52.924;-2.388;2022-07-30T02:50:00;99428.91;;;25.51;30.74
71873;BME280;59745;52.924;-2.388;2022-07-30T02:52:26;99422.13;;;25.59;30.99
71873;BME280;59745;52.924;-2.388;2022-07-30T02:54:51;99421.24;;;25.30;31.09
71873;BME280;59745;52.924;-2.388;2022-07-30T02:57:16;99418.83;;;25.24;31.26
71873;BME280;59745;52.924;-2.388;2022-07-30T02:59:41;99416.29;;;25.53;31.14
71873;BME280;59745;52.924;-2.388;2022-07-30T03:02:06;99416.72;;;25.44;31.33
71873;BME280;59745;52.924;-2.388;2022-07-30T03:04:31;99416.49;;;25.10;31.56
71873;BME280;59745;52.924;-2.388;2022-07-30T03:06:57;99414.74;;;25.49;31.25
71873;BME280;59745;52.924;-2.388;2022-07-30T03:09:21;99416.75;;;25.45;31.48
71873;BME280;59745;52.924;-2.388;2022-07-30T03:11:48;99415.67;;;25.27;31.50
71873;BME280;59745;52.924;-2.388;2022-07-30T03:14:11;99413.06;;;25.43;31.39
71873;BME280;59745;52.924;-2.388;2022-07-30T03:16:37;99414.21;;;25.26;31.33
71873;BME280;59745;52.924;-2.388;2022-07-30T03:19:02;99413.26;;;25.47;31.16
71873;BME280;59745;52.924;-2.388;2022-07-30T03:21:27;99412.17;;;25.34;31.35
71873;BME280;59745;52.924;-2.388;2022-07-30T03:23:52;99412.93;;;25.07;31.53
71873;BME280;59745;52.924;-2.388;2022-07-30T03:26:19;99416.89;;;24.98;31.64
71873;BME280;59745;52.924;-2.388;2022-07-30T03:28:42;99413.39;;;24.49;32.10
71873;BME280;59745;52.924;-2.388;2022-07-30T03:31:07;99411.27;;;24.09;32.63
71873;BME280;59745;52.924;-2.388;2022-07-30T03:33:34;99411.47;;;23.89;32.88
71873;BME280;59745;52.924;-2.388;2022-07-30T03:35:58;99409.58;;;24.36;32.76
71873;BME280;59745;52.924;-2.388;2022-07-30T03:38:24;99410.61;;;24.48;32.54
71873;BME280;59745;52.924;-2.388;2022-07-30T03:40:49;99406.87;;;24.22;32.72
71873;BME280;59745;52.924;-2.388;2022-07-30T03:43:13;99405.66;;;23.98;33.03
71873;BME280;59745;52.924;-2.388;2022-07-30T03:45:40;99400.16;;;23.80;33.57
71873;BME280;59745;52.924;-2.388;2022-07-30T03:48:06;99397.71;;;23.75;33.44
71873;BME280;59745;52.924;-2.388;2022-07-30T03:50:29;99396.08;;;24.03;33.24
71873;BME280;59745;52.924;-2.388;2022-07-30T03:52:54;99395.97;;;24.06;33.37
71873;BME280;59745;52.924;-2.388;2022-07-30T03:55:21;99397.23;;;23.74;33.68
71873;BME280;59745;52.924;-2.388;2022-07-30T03:57:45;99398.17;;;23.85;33.76
71873;BME280;59745;52.924;-2.388;2022-07-30T04:00:21;99399.61;;;23.93;33.53
71873;BME280;59745;52.924;-2.388;2022-07-30T04:02:40;99395.08;;;23.66;33.62
71873;BME280;59745;52.924;-2.388;2022-07-30T04:05:00;99393.56;;;23.80;33.34
71873;BME280;59745;52.924;-2.388;2022-07-30T04:07:26;99393.59;;;23.87;33.41
71873;BME280;59745;52.924;-2.388;2022-07-30T04:09:51;99395.72;;;23.96;33.29
71873;BME280;59745;52.924;-2.388;2022-07-30T04:12:16;99400.17;;;23.96;33.22
71873;BME280;59745;52.924;-2.388;2022-07-30T04:14:43;99404.17;;;24.03;33.23
71873;BME280;59745;52.924;-2.388;2022-07-30T04:17:10;99406.58;;;24.12;33.20
71873;BME280;59745;52.924;-2.388;2022-07-30T04:19:36;99404.53;;;24.05;33.22
71873;BME280;59745;52.924;-2.388;2022-07-30T04:21:58;99401.08;;;24.28;33.06
71873;BME280;59745;52.924;-2.388;2022-07-30T04:24:22;99396.78;;;24.06;32.97
71873;BME280;59745;52.924;-2.388;2022-07-30T04:26:47;99392.11;;;24.30;32.90
71873;BME280;59745;52.924;-2.388;2022-07-30T04:29:12;99388.88;;;24.73;32.82
71873;BME280;59745;52.924;-2.388;2022-07-30T04:31:38;99391.24;;;24.90;32.53
71873;BME280;59745;52.924;-2.388;2022-07-30T04:34:03;99388.91;;;24.22;32.79
71873;BME280;59745;52.924;-2.388;2022-07-30T04:36:28;99387.77;;;24.55;32.85
71873;BME280;59745;52.924;-2.388;2022-07-30T04:38:53;99384.03;;;24.66;32.87
71873;BME280;59745;52.924;-2.388;2022-07-30T04:41:18;99383.67;;;24.62;32.43
71873;BME280;59745;52.924;-2.388;2022-07-30T04:43:43;99379.00;;;25.00;32.47
71873;BME280;59745;52.924;-2.388;2022-07-30T04:46:08;99379.20;;;24.99;32.08
71873;BME280;59745;52.924;-2.388;2022-07-30T04:48:33;99381.36;;;25.11;31.94
71873;BME280;59745;52.924;-2.388;2022-07-30T04:51:01;99380.08;;;25.06;31.91
71873;BME280;59745;52.924;-2.388;2022-07-30T04:53:24;99381.82;;;25.17;31.70
71873;BME280;59745;52.924;-2.388;2022-07-30T04:55:50;99384.61;;;25.00;31.54
71873;BME280;59745;52.924;-2.388;2022-07-30T04:58:18;99385.11;;;25.26;31.55
71873;BME280;59745;52.924;-2.388;2022-07-30T05:00:40;99384.69;;;25.38;31.55
71873;BME280;59745;52.924;-2.388;2022-07-30T05:03:07;99383.24;;;25.18;31.91
71873;BME280;59745;52.924;-2.388;2022-07-30T05:05:32;99384.45;;;25.13;32.05
71873;BME280;59745;52.924;-2.388;2022-07-30T05:07:56;99391.61;;;25.25;31.93
71873;BME280;59745;52.924;-2.388;2022-07-30T05:10:21;99392.97;;;25.09;32.16
71873;BME280;59745;52.924;-2.388;2022-07-30T05:12:46;99392.15;;;25.09;32.33
71873;BME280;59745;52.924;-2.388;2022-07-30T05:15:11;99387.70;;;25.19;32.55
71873;BME280;59745;52.924;-2.388;2022-07-30T05:17:36;99388.14;;;25.04;32.54
71873;BME280;59745;52.924;-2.388;2022-07-30T05:20:02;99392.20;;;24.90;32.63
71873;BME280;59745;52.924;-2.388;2022-07-30T05:22:26;99389.43;;;25.15;32.53
71873;BME280;59745;52.924;-2.388;2022-07-30T05:24:52;99387.55;;;25.20;32.66
71873;BME280;59745;52.924;-2.388;2022-07-30T05:27:17;99385.08;;;25.23;32.66
71873;BME280;59745;52.924;-2.388;2022-07-30T05:29:42;99380.99;;;25.17;32.73
71873;BME280;59745;52.924;-2.388;2022-07-30T05:32:07;99385.31;;;25.38;32.77
71873;BME280;59745;52.924;-2.388;2022-07-30T05:34:32;99384.71;;;25.20;32.64
71873;BME280;59745;52.924;-2.388;2022-07-30T05:36:57;99378.81;;;25.25;32.61
71873;BME280;59745;52.924;-2.388;2022-07-30T05:39:22;99379.47;;;25.52;32.67
71873;BME280;59745;52.924;-2.388;2022-07-30T05:41:47;99389.31;;;25.54;32.49
71873;BME280;59745;52.924;-2.388;2022-07-30T05:44:12;99392.47;;;25.77;32.40
71873;BME280;59745;52.924;-2.388;2022-07-30T05:46:38;99391.18;;;25.20;32.76
71873;BME280;59745;52.924;-2.388;2022-07-30T05:49:03;99395.72;;;25.37;33.06
71873;BME280;59745;52.924;-2.388;2022-07-30T05:51:28;99397.37;;;25.70;32.81
71873;BME280;59745;52.924;-2.388;2022-07-30T05:53:53;99393.13;;;25.48;33.20
71873;BME280;59745;52.924;-2.388;2022-07-30T05:56:18;99396.31;;;25.68;33.18
71873;BME280;59745;52.924;-2.388;2022-07-30T05:58:43;99393.27;;;25.50;33.53
71873;BME280;59745;52.924;-2.388;2022-07-30T06:01:08;99383.44;;;25.37;33.95
71873;BME280;59745;52.924;-2.388;2022-07-30T06:03:33;99378.84;;;25.53;33.82
71873;BME280;59745;52.924;-2.388;2022-07-30T06:05:59;99385.06;;;25.41;33.64
71873;BME280;59745;52.924;-2.388;2022-07-30T06:08:24;99385.36;;;25.41;33.64
71873;BME280;59745;52.924;-2.388;2022-07-30T06:10:49;99382.32;;;25.38;33.83
71873;BME280;59745;52.924;-2.388;2022-07-30T06:13:14;99387.39;;;25.22;33.98
71873;BME280;59745;52.924;-2.388;2022-07-30T06:15:40;99390.70;;;25.81;33.75
71873;BME280;59745;52.924;-2.388;2022-07-30T06:18:05;99388.09;;;25.76;33.78
71873;BME280;59745;52.924;-2.388;2022-07-30T06:20:30;99384.61;;;25.69;34.10
71873;BME280;59745;52.924;-2.388;2022-07-30T06:22:55;99385.88;;;25.55;34.10
71873;BME280;59745;52.924;-2.388;2022-07-30T06:25:20;99392.81;;;25.66;34.32
71873;BME280;59745;52.924;-2.388;2022-07-30T06:27:45;99389.40;;;25.24;34.30
71873;BME280;59745;52.924;-2.388;2022-07-30T06:30:11;99390.05;;;25.62;34.48
71873;BME280;59745;52.924;-2.388;2022-07-30T06:32:35;99391.34;;;25.18;34.77
71873;BME280;59745;52.924;-2.388;2022-07-30T06:35:01;99394.78;;;25.50;34.84
71873;BME280;59745;52.924;-2.388;2022-07-30T06:37:26;99395.82;;;25.49;34.90
71873;BME280;59745;52.924;-2.388;2022-07-30T06:39:51;99392.54;;;25.69;34.79
71873;BME280;59745;52.924;-2.388;2022-07-30T06:42:16;99396.95;;;25.59;34.97
71873;BME280;59745;52.924;-2.388;2022-07-30T06:44:41;99389.43;;;25.04;35.72
71873;BME280;59745;52.924;-2.388;2022-07-30T06:47:07;99389.67;;;24.94;35.97
71873;BME280;59745;52.924;-2.388;2022-07-30T06:49:32;99391.22;;;24.56;36.65
71873;BME280;59745;52.924;-2.388;2022-07-30T06:51:56;99383.26;;;24.60;36.74
71873;BME280;59745;52.924;-2.388;2022-07-30T06:54:22;99383.29;;;24.80;36.81
71873;BME280;59745;52.924;-2.388;2022-07-30T06:56:47;99382.09;;;24.49;37.12
71873;BME280;59745;52.924;-2.388;2022-07-30T06:59:12;99379.95;;;24.84;37.02
71873;BME280;59745;52.924;-2.388;2022-07-30T07:01:37;99376.13;;;24.92;37.28
71873;BME280;59745;52.924;-2.388;2022-07-30T07:04:03;99376.34;;;25.22;37.09
71873;BME280;59745;52.924;-2.388;2022-07-30T07:06:28;99374.03;;;24.71;37.18
71873;BME280;59745;52.924;-2.388;2022-07-30T07:08:52;99374.19;;;24.81;37.16
71873;BME280;59745;52.924;-2.388;2022-07-30T07:11:17;99377.80;;;24.99;36.90
71873;BME280;59745;52.924;-2.388;2022-07-30T07:13:43;99378.90;;;24.82;36.99
71873;BME280;59745;52.924;-2.388;2022-07-30T07:16:08;99374.26;;;24.99;36.94
71873;BME280;59745;52.924;-2.388;2022-07-30T07:18:33;99374.65;;;25.07;36.95
71873;BME280;59745;52.924;-2.388;2022-07-30T07:20:58;99374.18;;;24.86;37.23
71873;BME280;59745;52.924;-2.388;2022-07-30T07:23:23;99382.28;;;25.04;37.08
71873;BME280;59745;52.924;-2.388;2022-07-30T07:25:48;99384.98;;;25.18;37.11
71873;BME280;59745;52.924;-2.388;2022-07-30T07:28:13;99384.54;;;25.09;37.79
71873;BME280;59745;52.924;-2.388;2022-07-30T07:30:39;99384.01;;;25.16;37.40
71873;BME280;59745;52.924;-2.388;2022-07-30T07:33:04;99379.98;;;25.42;37.37
71873;BME280;59745;52.924;-2.388;2022-07-30T07:35:29;99379.16;;;25.27;37.30
71873;BME280;59745;52.924;-2.388;2022-07-30T07:37:54;99375.13;;;25.17;37.83
71873;BME280;59745;52.924;-2.388;2022-07-30T07:40:19;99371.76;;;25.09;37.82
71873;BME280;59745;52.924;-2.388;2022-07-30T07:42:44;99372.44;;;25.07;38.01
71873;BME280;59745;52.924;-2.388;2022-07-30T07:45:10;99375.02;;;25.18;38.06
71873;BME280;59745;52.924;-2.388;2022-07-30T07:47:43;99375.15;;;25.27;37.72
71873;BME280;59745;52.924;-2.388;2022-07-30T07:49:59;99372.00;;;25.13;38.03
71873;BME280;59745;52.924;-2.388;2022-07-30T07:52:24;99375.98;;;25.21;37.92
71873;BME280;59745;52.924;-2.388;2022-07-30T07:54:50;99375.04;;;25.19;37.90
71873;BME280;59745;52.924;-2.388;2022-07-30T07:57:15;99373.10;;;24.88;38.23
71873;BME280;59745;52.924;-2.388;2022-07-30T07:59:40;99369.15;;;24.94;38.44
71873;BME280;59745;52.924;-2.388;2022-07-30T08:02:05;99370.19;;;25.35;38.25
71873;BME280;59745;52.924;-2.388;2022-07-30T08:04:30;99373.53;;;25.30;38.53
71873;BME280;59745;52.924;-2.388;2022-07-30T08:06:55;99374.71;;;25.36;38.20
71873;BME280;59745;52.924;-2.388;2022-07-30T08:09:20;99375.73;;;25.56;37.88
71873;BME280;59745;52.924;-2.388;2022-07-30T08:11:45;99379.30;;;25.73;37.61
71873;BME280;59745;52.924;-2.388;2022-07-30T08:14:10;99379.42;;;25.77;37.34
71873;BME280;59745;52.924;-2.388;2022-07-30T08:16:36;99387.34;;;25.45;37.22
71873;BME280;59745;52.924;-2.388;2022-07-30T08:19:00;99390.05;;;25.53;37.76
71873;BME280;59745;52.924;-2.388;2022-07-30T08:21:26;99388.38;;;25.41;37.48
71873;BME280;59745;52.924;-2.388;2022-07-30T08:23:51;99385.76;;;25.89;37.52
71873;BME280;59745;52.924;-2.388;2022-07-30T08:26:16;99381.28;;;25.84;37.58
71873;BME280;59745;52.924;-2.388;2022-07-30T08:28:41;99382.18;;;25.56;37.48
71873;BME280;59745;52.924;-2.388;2022-07-30T08:31:06;99374.36;;;25.71;37.47
71873;BME280;59745;52.924;-2.388;2022-07-30T08:33:31;99377.25;;;25.85;37.39
71873;BME280;59745;52.924;-2.388;2022-07-30T08:35:56;99376.32;;;25.75;37.37
71873;BME280;59745;52.924;-2.388;2022-07-30T08:38:21;99381.82;;;25.69;37.24
71873;BME280;59745;52.924;-2.388;2022-07-30T08:40:46;99386.23;;;25.67;37.29
71873;BME280;59745;52.924;-2.388;2022-07-30T08:43:11;99384.72;;;25.85;37.49
71873;BME280;59745;52.924;-2.388;2022-07-30T08:45:37;99389.69;;;25.91;37.37
71873;BME280;59745;52.924;-2.388;2022-07-30T08:48:07;99387.67;;;26.05;37.46
71873;BME280;59745;52.924;-2.388;2022-07-30T08:50:27;99388.98;;;26.21;37.32
71873;BME280;59745;52.924;-2.388;2022-07-30T08:52:52;99393.29;;;25.81;37.44
71873;BME280;59745;52.924;-2.388;2022-07-30T08:55:17;99390.33;;;25.82;37.62
71873;BME280;59745;52.924;-2.388;2022-07-30T08:57:42;99389.80;;;25.40;38.06
71873;BME280;59745;52.924;-2.388;2022-07-30T09:00:08;99386.29;;;25.70;38.17
71873;BME280;59745;52.924;-2.388;2022-07-30T09:02:32;99388.17;;;25.49;38.14
71873;BME280;59745;52.924;-2.388;2022-07-30T09:04:57;99386.73;;;25.99;38.13
71873;BME280;59745;52.924;-2.388;2022-07-30T09:07:22;99387.13;;;25.81;37.57
71873;BME280;59745;52.924;-2.388;2022-07-30T09:09:47;99386.57;;;25.69;37.60
71873;BME280;59745;52.924;-2.388;2022-07-30T09:12:30;99392.96;;;25.87;38.10
71873;BME280;59745;52.924;-2.388;2022-07-30T09:14:37;99394.17;;;25.71;38.40
71873;BME280;59745;52.924;-2.388;2022-07-30T09:17:02;99399.33;;;25.91;37.86
71873;BME280;59745;52.924;-2.388;2022-07-30T09:19:27;99401.21;;;26.13;37.48
71873;BME280;59745;52.924;-2.388;2022-07-30T09:21:55;99404.57;;;25.90;37.81
71873;BME280;59745;52.924;-2.388;2022-07-30T09:24:18;99408.08;;;26.10;38.28
71873;BME280;59745;52.924;-2.388;2022-07-30T09:26:53;99407.77;;;26.17;38.02
71873;BME280;59745;52.924;-2.388;2022-07-30T09:29:15;99403.13;;;25.98;38.66
71873;BME280;59745;52.924;-2.388;2022-07-30T09:33:58;99401.20;;;26.63;38.37
71873;BME280;59745;52.924;-2.388;2022-07-30T09:36:30;99398.36;;;26.58;38.51
71873;BME280;59745;52.924;-2.388;2022-07-30T09:38:50;99399.96;;;26.16;38.29
71873;BME280;59745;52.924;-2.388;2022-07-30T09:41:14;99401.92;;;26.41;38.31
71873;BME280;59745;52.924;-2.388;2022-07-30T09:43:45;99398.62;;;26.61;37.93
71873;BME280;59745;52.924;-2.388;2022-07-30T09:46:03;99402.23;;;26.99;37.52
71873;BME280;59745;52.924;-2.388;2022-07-30T09:48:28;99397.29;;;26.92;37.49
71873;BME280;59745;52.924;-2.388;2022-07-30T09:50:54;99401.08;;;26.62;37.27
71873;BME280;59745;52.924;-2.388;2022-07-30T09:53:19;99405.70;;;26.34;37.68
71873;BME280;59745;52.924;-2.388;2022-07-30T09:55:44;99403.73;;;26.71;37.69
71873;BME280;59745;52.924;-2.388;2022-07-30T09:58:10;99410.40;;;26.37;37.54
71873;BME280;59745;52.924;-2.388;2022-07-30T10:00:35;99410.92;;;26.38;37.65
71873;BME280;59745;52.924;-2.388;2022-07-30T10:02:59;99412.81;;;26.58;37.59
71873;BME280;59745;52.924;-2.388;2022-07-30T10:05:24;99411.55;;;26.24;37.79
71873;BME280;59745;52.924;-2.388;2022-07-30T10:07:50;99416.80;;;25.92;38.42
71873;BME280;59745;52.924;-2.388;2022-07-30T10:10:14;99415.86;;;26.23;39.45
71873;BME280;59745;52.924;-2.388;2022-07-30T10:12:39;99416.76;;;26.15;39.41
71873;BME280;59745;52.924;-2.388;2022-07-30T10:15:05;99412.89;;;25.47;39.87
71873;BME280;59745;52.924;-2.388;2022-07-30T10:17:30;99413.77;;;26.11;40.05
71873;BME280;59745;52.924;-2.388;2022-07-30T10:19:54;99406.76;;;26.13;40.13
71873;BME280;59745;52.924;-2.388;2022-07-30T10:22:19;99407.43;;;26.39;39.91
71873;BME280;59745;52.924;-2.388;2022-07-30T10:24:44;99406.33;;;25.94;40.07
71873;BME280;59745;52.924;-2.388;2022-07-30T10:27:09;99406.31;;;26.03;40.25
71873;BME280;59745;52.924;-2.388;2022-07-30T10:29:36;99409.70;;;26.56;40.12
71873;BME280;59745;52.924;-2.388;2022-07-30T10:31:59;99411.54;;;26.50;39.66
71873;BME280;59745;52.924;-2.388;2022-07-30T10:34:24;99410.40;;;26.71;39.72
71873;BME280;59745;52.924;-2.388;2022-07-30T10:36:51;99409.23;;;26.53;39.49
71873;BME280;59745;52.924;-2.388;2022-07-30T10:39:18;99415.96;;;26.83;39.09
71873;BME280;59745;52.924;-2.388;2022-07-30T10:41:46;99415.15;;;27.12;39.15
71873;BME280;59745;52.924;-2.388;2022-07-30T10:44:19;99413.73;;;26.54;38.93
71873;BME280;59745;52.924;-2.388;2022-07-30T10:46:42;99421.01;;;26.45;39.93
71873;BME280;59745;52.924;-2.388;2022-07-30T10:49:07;99418.03;;;26.67;39.63
71873;BME280;59745;52.924;-2.388;2022-07-30T10:51:20;99419.69;;;26.85;39.86
71873;BME280;59745;52.924;-2.388;2022-07-30T10:53:45;99419.41;;;26.86;39.87
71873;BME280;59745;52.924;-2.388;2022-07-30T10:56:13;99417.01;;;26.41;39.93
71873;BME280;59745;52.924;-2.388;2022-07-30T11:01:00;99414.58;;;26.96;39.73
71873;BME280;59745;52.924;-2.388;2022-07-30T11:03:26;99409.90;;;27.01;39.36
71873;BME280;59745;52.924;-2.388;2022-07-30T11:06:22;99410.82;;;27.32;39.52
71873;BME280;59745;52.924;-2.388;2022-07-30T11:08:29;99411.50;;;27.06;39.18
71873;BME280;59745;52.924;-2.388;2022-07-30T11:10:40;99413.74;;;27.10;39.31
71873;BME280;59745;52.924;-2.388;2022-07-30T11:13:07;99416.09;;;27.12;39.65
71873;BME280;59745;52.924;-2.388;2022-07-30T11:17:58;99426.27;;;26.92;40.34
71873;BME280;59745;52.924;-2.388;2022-07-30T11:20:20;99424.35;;;27.14;40.71
71873;BME280;59745;52.924;-2.388;2022-07-30T11:22:45;99426.14;;;26.77;40.58
71873;BME280;59745;52.924;-2.388;2022-07-30T11:27:38;99421.92;;;26.48;41.06
71873;BME280;59745;52.924;-2.388;2022-07-30T11:30:01;99424.56;;;26.83;40.90
71873;BME280;59745;52.924;-2.388;2022-07-30T11:32:28;99426.83;;;26.72;41.04
71873;BME280;59745;52.924;-2.388;2022-07-30T11:34:52;99423.50;;;26.65;41.03
71873;BME280;59745;52.924;-2.388;2022-07-30T11:37:16;99422.84;;;26.65;41.96
71873;BME280;59745;52.924;-2.388;2022-07-30T11:42:24;99423.40;;;26.56;41.13
71873;BME280;59745;52.924;-2.388;2022-07-30T11:44:31;99425.00;;;26.61;40.89
71873;BME280;59745;52.924;-2.388;2022-07-30T11:46:56;99437.26;;;26.04;41.88
71873;BME280;59745;52.924;-2.388;2022-07-30T11:49:21;99440.45;;;25.94;42.57
71873;BME280;59745;52.924;-2.388;2022-07-30T11:51:47;99439.83;;;26.18;43.21
71873;BME280;59745;52.924;-2.388;2022-07-30T11:54:12;99440.15;;;25.94;42.88
71873;BME280;59745;52.924;-2.388;2022-07-30T11:56:36;99443.36;;;26.24;43.06
71873;BME280;59745;52.924;-2.388;2022-07-30T11:59:03;99440.58;;;26.07;42.72
71873;BME280;59745;52.924;-2.388;2022-07-30T12:01:26;99439.88;;;25.87;43.67
71873;BME280;59745;52.924;-2.388;2022-07-30T12:03:52;99441.58;;;26.19;43.72
71873;BME280;59745;52.924;-2.388;2022-07-30T12:06:16;99437.42;;;25.86;43.18
71873;BME280;59745;52.924;-2.388;2022-07-30T12:08:43;99434.36;;;26.22;42.49
71873;BME280;59745;52.924;-2.388;2022-07-30T12:11:07;99428.81;;;26.72;42.91
71873;BME280;59745;52.924;-2.388;2022-07-30T12:13:32;99429.15;;;26.28;42.63
71873;BME280;59745;52.924;-2.388;2022-07-30T12:15:57;99432.94;;;26.16;42.26
71873;BME280;59745;52.924;-2.388;2022-07-30T12:18:24;99428.89;;;26.27;42.47
71873;BME280;59745;52.924;-2.388;2022-07-30T12:20:52;99438.70;;;25.61;42.06
71873;BME280;59745;52.924;-2.388;2022-07-30T12:23:13;99435.93;;;26.31;42.13
71873;BME280;59745;52.924;-2.388;2022-07-30T12:25:38;99437.46;;;25.95;41.73
71873;BME280;59745;52.924;-2.388;2022-07-30T12:28:02;99437.28;;;25.52;42.97
71873;BME280;59745;52.924;-2.388;2022-07-30T12:30:27;99446.17;;;25.89;42.41
71873;BME280;59745;52.924;-2.388;2022-07-30T12:32:52;99439.94;;;25.77;41.90
71873;BME280;59745;52.924;-2.388;2022-07-30T12:35:17;99440.41;;;25.59;41.42
71873;BME280;59745;52.924;-2.388;2022-07-30T12:40:10;99440.82;;;25.57;41.62
71873;BME280;59745;52.924;-2.388;2022-07-30T12:42:32;99434.00;;;26.00;41.32
71873;BME280;59745;52.924;-2.388;2022-07-30T12:44:58;99432.31;;;25.52;41.38
71873;BME280;59745;52.924;-2.388;2022-07-30T12:47:24;99426.31;;;25.87;41.55
71873;BME280;59745;52.924;-2.388;2022-07-30T12:49:48;99419.46;;;26.12;41.78
71873;BME280;59745;52.924;-2.388;2022-07-30T12:52:19;99422.72;;;25.72;41.09
71873;BME280;59745;52.924;-2.388;2022-07-30T12:54:38;99415.37;;;25.71;41.75
71873;BME280;59745;52.924;-2.388;2022-07-30T12:57:04;99408.89;;;26.23;41.98